Time;durP1;ratioP1;P1;durP2;ratioP2;P2;SDS_P1;SDS_P2;PMS_P1;PMS_P2;Temp;Humidity;BMP_temperature;BMP_pressure;BME280_temperature;BME280_humidity;BME280_pressure;Samples;Min_cycle;Max_cycle;Signal;HPM_P1;HPM_P2
2022/05/21 00:00:11;;;;;;;343.87;160.63;;;;;;;17.08;58.26;99974.16;338839;29;939;-79
2022/05/21 00:00:22;;;;;;;343.85;157.23;;;;;;;17.08;58.43;99984.72;339034;29;1339;-79
2022/05/21 00:00:33;;;;;;;346.42;156.23;;;;;;;17.10;58.31;99980.19;338470;29;1563;-79
2022/05/21 00:00:43;;;;;;;351.10;157.80;;;;;;;17.05;57.90;99980.47;341022;29;1230;-79
2022/05/21 00:00:54;;;;;;;353.15;157.95;;;;;;;17.06;57.76;99986.63;337125;29;1465;-79
2022/05/21 00:01:05;;;;;;;346.63;156.23;;;;;;;17.06;57.87;99989.25;339842;29;1305;-79
2022/05/21 00:01:15;;;;;;;342.98;154.85;;;;;;;17.05;57.68;99984.91;341211;29;1418;-79
2022/05/21 00:01:26;;;;;;;342.47;157.80;;;;;;;17.05;57.81;99985.75;337330;29;791;-79
2022/05/21 00:01:36;;;;;;;340.48;155.13;;;;;;;17.06;57.60;99986.63;336636;29;1782;-79
2022/05/21 00:01:47;;;;;;;343.10;156.73;;;;;;;17.08;57.27;99984.72;338438;29;1334;-79
2022/05/21 00:01:58;;;;;;;343.98;155.88;;;;;;;17.08;57.60;99987.38;337443;29;850;-77
2022/05/21 00:02:09;;;;;;;345.80;159.48;;;;;;;17.08;57.23;99980.28;337125;29;1378;-78
2022/05/21 00:02:19;;;;;;;342.88;159.32;;;;;;;17.10;57.33;99988.13;338535;29;1207;-78
2022/05/21 00:02:30;;;;;;;341.20;156.53;;;;;;;17.07;57.28;99988.31;335937;29;1025;-78
2022/05/21 00:02:40;;;;;;;340.58;154.32;;;;;;;17.09;57.15;99989.94;339039;29;1444;-78
2022/05/21 00:02:51;;;;;;;342.05;155.68;;;;;;;17.09;56.86;99981.13;339024;29;815;-78
2022/05/21 00:03:02;;;;;;;343.90;160.43;;;;;;;17.08;56.71;99985.56;339410;29;1278;-78
2022/05/21 00:03:14;;;;;;;343.45;161.63;;;;;;;17.08;56.71;99982.94;337873;29;1266;-78
2022/05/21 00:03:24;;;;;;;340.42;159.32;;;;;;;17.09;56.34;99989.06;339129;29;1290;-78
2022/05/21 00:03:35;;;;;;;340.77;158.20;;;;;;;17.07;56.76;99988.31;337879;29;1264;-78
2022/05/21 00:03:45;;;;;;;342.47;158.30;;;;;;;17.06;56.74;99984.81;336493;29;978;-78
2022/05/21 00:03:56;;;;;;;342.73;158.07;;;;;;;17.07;56.49;99988.31;336481;29;1189;-78
2022/05/21 00:04:06;;;;;;;342.27;159.40;;;;;;;17.07;56.39;99988.31;340464;29;1947;-78
2022/05/21 00:04:17;;;;;;;341.08;159.93;;;;;;;17.02;56.51;99985.09;340288;29;1292;-78
2022/05/21 00:04:28;;;;;;;343.87;159.47;;;;;;;17.04;56.55;99992.00;336340;29;1207;-78
2022/05/21 00:04:41;;;;;;;342.70;156.65;;;;;;;17.05;56.64;99979.63;340265;29;1569;-78
2022/05/21 00:04:52;;;;;;;339.25;153.63;;;;;;;17.06;56.55;99983.97;339000;29;949;-78
2022/05/21 00:05:03;;;;;;;338.27;154.00;;;;;;;17.03;56.61;99976.22;337898;29;1373;-78
2022/05/21 00:05:13;;;;;;;341.63;158.43;;;;;;;17.04;56.38;99984.06;337979;29;1187;-78
2022/05/21 00:05:25;;;;;;;343.63;160.85;;;;;;;17.03;56.68;99981.50;339195;29;1183;-79
2022/05/21 00:05:36;;;;;;;342.98;158.65;;;;;;;17.01;56.50;99983.41;340584;29;1690;-79
2022/05/21 00:05:47;;;;;;;340.50;156.63;;;;;;;16.99;56.79;99985.28;340188;29;1270;-79
2022/05/21 00:05:58;;;;;;;338.38;157.85;;;;;;;16.98;56.75;99983.59;339067;29;1285;-79
2022/05/21 00:06:08;;;;;;;337.48;157.73;;;;;;;17.00;56.70;99981.69;339486;29;1431;-79
2022/05/21 00:06:19;;;;;;;339.53;158.43;;;;;;;17.00;56.75;99981.69;339041;29;1274;-79
2022/05/21 00:06:30;;;;;;;339.83;157.65;;;;;;;17.00;56.53;99976.41;337968;29;1275;-79
2022/05/21 00:06:41;;;;;;;337.88;157.10;;;;;;;17.00;56.47;99984.34;339107;29;861;-79
2022/05/21 00:06:52;;;;;;;337.88;155.75;;;;;;;17.01;56.93;99988.69;340597;29;1242;-79
2022/05/21 00:07:03;;;;;;;339.25;156.30;;;;;;;16.99;56.76;99982.66;337459;29;1637;-79
2022/05/21 00:07:13;;;;;;;339.67;157.97;;;;;;;16.96;56.81;99981.88;337774;29;1502;-79
2022/05/21 00:07:24;;;;;;;338.50;158.68;;;;;;;16.96;56.94;99981.88;341227;29;1514;-79
2022/05/21 00:07:36;;;;;;;340.63;161.27;;;;;;;16.98;57.15;99980.94;341659;29;1369;-79
2022/05/21 00:07:46;;;;;;;341.98;160.40;;;;;;;16.99;56.72;99977.34;336431;29;2321;-79
2022/05/21 00:07:57;;;;;;;340.92;158.15;;;;;;;16.98;56.97;99980.94;337910;29;3113;-79
2022/05/21 00:08:10;;;;;;;341.67;157.83;;;;;;;16.96;57.01;99981.88;340504;29;1028;-79
2022/05/21 00:08:21;;;;;;;338.20;155.93;;;;;;;16.96;56.98;99984.53;338335;29;964;-79
2022/05/21 00:08:31;;;;;;;337.93;155.67;;;;;;;16.96;56.83;99981.88;337356;29;1317;-79
2022/05/21 00:08:41;;;;;;;339.33;156.07;;;;;;;16.99;56.86;99986.13;340367;29;1182;-79
2022/05/21 00:08:52;;;;;;;342.20;159.17;;;;;;;16.95;57.11;99985.47;340830;29;1382;-79
2022/05/21 00:09:03;;;;;;;342.20;159.98;;;;;;;16.98;56.47;99980.94;337663;29;1478;-79
2022/05/21 00:09:13;;;;;;;340.73;159.33;;;;;;;16.95;57.11;99985.47;336685;29;1099;-79
2022/05/21 00:09:25;;;;;;;339.65;157.43;;;;;;;16.96;56.97;99975.75;337959;29;1339;-78
2022/05/21 00:09:35;;;;;;;339.35;155.80;;;;;;;16.92;57.00;99975.09;340205;29;870;-78
2022/05/21 00:09:46;;;;;;;340.07;156.73;;;;;;;16.96;56.76;99987.19;339038;29;1338;-78
2022/05/21 00:09:56;;;;;;;340.73;156.75;;;;;;;16.91;57.00;99980.47;337659;29;1223;-78
2022/05/21 00:10:12;;;;;;;346.23;159.20;;;;;;;16.94;56.91;99983.78;336446;29;1261;-79
2022/05/21 00:10:23;;;;;;;344.65;157.25;;;;;;;16.94;56.93;99977.63;337744;29;1329;-79
2022/05/21 00:10:34;;;;;;;343.88;154.40;;;;;;;16.94;57.08;99983.78;338418;29;1615;-79
2022/05/21 00:10:44;;;;;;;341.53;151.80;;;;;;;16.94;56.93;99981.13;337643;29;1450;-79
2022/05/21 00:10:55;;;;;;;341.67;155.80;;;;;;;16.89;56.87;99980.59;340073;29;1005;-79
2022/05/21 00:11:05;;;;;;;340.10;154.68;;;;;;;16.88;57.17;99984.19;341120;29;1230;-79
2022/05/21 00:11:16;;;;;;;339.87;156.17;;;;;;;16.84;56.91;99969.44;339890;29;1260;-79
2022/05/21 00:11:26;;;;;;;341.97;154.93;;;;;;;16.90;56.92;99976.97;339975;29;1347;-79
2022/05/21 00:11:38;;;;;;;339.47;154.70;;;;;;;16.88;57.03;99981.53;340747;29;1319;-79
2022/05/21 00:11:48;;;;;;;337.42;154.15;;;;;;;16.88;57.20;99988.63;339946;29;913;-80
2022/05/21 00:11:59;;;;;;;338.47;155.77;;;;;;;16.90;57.16;99984.91;338649;29;1191;-80
2022/05/21 00:12:10;;;;;;;343.67;159.80;;;;;;;16.90;57.10;99979.63;339626;29;1243;-80
2022/05/21 00:12:21;;;;;;;342.65;157.90;;;;;;;16.92;57.28;99985.66;340783;29;1244;-80
2022/05/21 00:12:32;;;;;;;337.77;154.45;;;;;;;16.93;57.56;99982.06;341133;29;1422;-79
2022/05/21 00:12:42;;;;;;;336.83;152.97;;;;;;;16.90;57.42;99982.25;341898;29;1339;-79
2022/05/21 00:12:53;;;;;;;336.67;153.63;;;;;;;16.90;57.66;99981.41;342122;28;1378;-79
2022/05/21 00:13:04;;;;;;;336.83;154.07;;;;;;;16.89;57.60;99977.94;342044;29;1285;-79
2022/05/21 00:13:15;;;;;;;337.35;154.50;;;;;;;16.88;57.61;99976.25;338106;29;1377;-78
2022/05/21 00:13:25;;;;;;;338.03;156.10;;;;;;;16.93;57.84;99986.50;338414;29;1249;-77
2022/05/21 00:13:36;;;;;;;339.65;155.70;;;;;;;16.93;57.43;99982.06;339943;29;1420;-77
2022/05/21 00:13:48;;;;;;;339.53;154.43;;;;;;;16.93;57.56;99981.22;338550;29;1397;-77
2022/05/21 00:13:59;;;;;;;336.75;152.95;;;;;;;16.96;57.55;99981.88;337024;29;1663;-76
2022/05/21 00:14:09;;;;;;;334.97;152.40;;;;;;;16.93;57.61;99979.44;341311;28;1598;-77
2022/05/21 00:14:20;;;;;;;335.33;154.43;;;;;;;16.94;57.71;99983.78;340496;29;860;-78
2022/05/21 00:14:31;;;;;;;340.98;156.50;;;;;;;16.96;57.67;99981.03;335113;29;1325;-78
2022/05/21 00:14:41;;;;;;;340.38;155.98;;;;;;;16.94;57.40;99977.63;340493;29;1206;-78
2022/05/21 00:14:52;;;;;;;341.87;156.80;;;;;;;16.93;57.42;99976.78;342784;28;1189;-78
2022/05/21 00:15:03;;;;;;;339.30;153.52;;;;;;;16.94;57.43;99972.34;337620;29;1384;-79
2022/05/21 00:15:15;;;;;;;341.73;153.00;;;;;;;16.94;57.50;99975.84;340296;29;1389;-79
2022/05/21 00:15:27;;;;;;;339.58;149.88;;;;;;;16.92;57.69;99975.09;340236;29;1323;-78
2022/05/21 00:15:38;;;;;;;333.98;149.68;;;;;;;16.91;57.64;99973.38;337607;29;1508;-78
2022/05/21 00:15:48;;;;;;;335.17;152.53;;;;;;;16.90;57.32;99976.97;339858;29;1272;-78
2022/05/21 00:15:59;;;;;;;335.42;154.55;;;;;;;16.87;57.57;99973.69;340515;29;1488;-78
2022/05/21 00:16:09;;;;;;;339.07;154.23;;;;;;;16.89;57.54;99969.16;339370;29;1029;-78
2022/05/21 00:16:20;;;;;;;339.63;153.10;;;;;;;16.86;57.60;99964.91;337815;29;1286;-78
2022/05/21 00:16:32;;;;;;;341.58;151.13;;;;;;;16.94;57.44;99978.47;337381;29;1522;-78
2022/05/21 00:16:42;;;;;;;336.33;148.00;;;;;;;16.95;57.70;99974.91;337207;29;1251;-78
2022/05/21 00:16:52;;;;;;;337.43;148.60;;;;;;;16.94;57.50;99972.34;338006;29;3503;-78
2022/05/21 00:17:03;;;;;;;339.30;150.18;;;;;;;16.91;57.53;99978.66;337780;29;2320;-78
2022/05/21 00:17:15;;;;;;;340.42;153.50;;;;;;;16.88;57.58;99968.31;336666;29;2347;-78
2022/05/21 00:17:25;;;;;;;340.70;155.70;;;;;;;16.89;57.70;99972.66;337141;29;1433;-78
2022/05/21 00:17:35;;;;;;;341.67;156.33;;;;;;;16.86;57.86;99970.19;337248;29;1466;-78
2022/05/21 00:17:46;;;;;;;343.52;158.05;;;;;;;16.84;57.59;99972.09;337328;29;1235;-79
2022/05/21 00:17:56;;;;;;;344.10;159.47;;;;;;;16.89;57.51;99974.44;339029;29;1237;-79
2022/05/21 00:18:07;;;;;;;341.88;158.43;;;;;;;16.91;57.40;99976.03;339121;29;1242;-79
2022/05/21 00:18:19;;;;;;;341.57;158.40;;;;;;;16.91;57.40;99973.38;338774;29;1572;-79
2022/05/21 00:18:29;;;;;;;338.23;156.55;;;;;;;16.89;57.66;99966.53;338507;29;1346;-79
2022/05/21 00:18:40;;;;;;;336.87;156.57;;;;;;;16.88;57.75;99970.97;340086;29;1399;-79
2022/05/21 00:18:50;;;;;;;337.48;155.60;;;;;;;16.91;57.42;99973.38;338523;29;1387;-78
2022/05/21 00:19:01;;;;;;;340.67;153.87;;;;;;;16.92;57.44;99969.78;337199;29;1217;-78
2022/05/21 00:19:11;;;;;;;343.58;154.10;;;;;;;16.92;57.52;99975.09;339796;29;1263;-78
2022/05/21 00:19:22;;;;;;;345.20;156.93;;;;;;;16.92;57.53;99975.09;338325;29;1362;-78
2022/05/21 00:19:32;;;;;;;343.25;158.35;;;;;;;16.94;57.26;99973.19;338458;29;858;-78
2022/05/21 00:19:42;;;;;;;342.83;158.13;;;;;;;16.95;57.59;99974.91;336075;29;830;-78
2022/05/21 00:19:53;;;;;;;343.67;157.33;;;;;;;16.93;57.45;99970.66;336015;29;1382;-78
2022/05/21 00:20:04;;;;;;;342.75;156.38;;;;;;;16.98;57.30;99978.28;339853;29;1226;-78
2022/05/21 00:20:49;;;;;;;338.80;155.70;;;;;;;16.92;57.41;99969.78;338000;29;747;-78
2022/05/21 00:21:00;;;;;;;335.00;152.25;;;;;;;16.92;56.71;99969.78;336027;29;902;-78
2022/05/21 00:21:12;;;;;;;336.03;152.57;;;;;;;16.92;57.07;99968.94;340328;29;1239;-78
2022/05/21 00:21:23;;;;;;;337.55;154.38;;;;;;;16.90;57.23;99976.13;340177;29;1370;-78
2022/05/21 00:21:34;;;;;;;339.27;156.52;;;;;;;16.91;57.24;99976.03;339052;29;1812;-78
2022/05/21 00:21:44;;;;;;;337.77;156.57;;;;;;;16.90;56.98;99970.84;338929;29;1332;-78
2022/05/21 00:21:55;;;;;;;334.08;152.18;;;;;;;16.87;56.87;99976.34;338669;29;1400;-78
2022/05/21 00:22:05;;;;;;;334.50;152.30;;;;;;;16.82;57.15;99966.03;339832;29;1313;-78
2022/05/21 00:22:16;;;;;;;336.17;151.35;;;;;;;16.86;57.00;99972.84;337754;29;1262;-78
2022/05/21 00:22:27;;;;;;;339.17;155.00;;;;;;;16.86;57.00;99980.78;339456;29;1218;-78
2022/05/21 00:22:37;;;;;;;341.55;156.68;;;;;;;16.85;56.94;99968.50;338926;29;1386;-78
2022/05/21 00:22:47;;;;;;;342.70;158.50;;;;;;;16.85;57.10;99973.78;338997;29;1398;-78
2022/05/21 00:22:58;;;;;;;343.80;156.73;;;;;;;16.83;56.99;99965.09;337448;29;1207;-78
2022/05/21 00:23:12;;;;;;;342.77;152.85;;;;;;;16.86;56.92;99980.78;337165;29;1403;-78
2022/05/21 00:23:27;;;;;;;340.38;154.70;;;;;;;16.89;57.29;99975.31;338534;29;945;-78
2022/05/21 00:23:37;;;;;;;337.13;155.15;;;;;;;16.86;56.90;99969.34;337226;29;1395;-78
2022/05/21 00:23:48;;;;;;;337.60;152.87;;;;;;;16.90;56.56;99976.13;337979;29;989;-78
2022/05/21 00:23:58;;;;;;;340.40;153.63;;;;;;;16.90;56.92;99976.97;338931;29;1252;-78
2022/05/21 00:24:08;;;;;;;342.50;155.50;;;;;;;16.89;56.81;99977.94;337132;29;1897;-78
2022/05/21 00:24:19;;;;;;;340.80;155.10;;;;;;;16.90;57.15;99979.63;337094;29;1269;-78
2022/05/21 00:24:29;;;;;;;338.85;154.52;;;;;;;16.91;56.96;99981.31;338246;29;1482;-78
2022/05/21 00:24:40;;;;;;;338.70;154.00;;;;;;;16.88;57.02;99978.88;338589;29;839;-78
2022/05/21 00:24:50;;;;;;;339.88;155.07;;;;;;;16.83;57.65;99967.75;337086;29;1354;-78
2022/05/21 00:25:00;;;;;;;342.83;153.17;;;;;;;16.88;57.13;99978.88;337121;29;1338;-78
2022/05/21 00:25:11;;;;;;;344.52;154.65;;;;;;;16.89;57.58;99980.59;338535;29;1227;-78
2022/05/21 00:25:21;;;;;;;346.40;157.37;;;;;;;16.85;57.17;99976.44;338314;29;1368;-78
2022/05/21 00:25:32;;;;;;;345.90;160.27;;;;;;;16.89;57.64;99975.31;336754;29;1415;-78
2022/05/21 00:25:42;;;;;;;346.97;158.83;;;;;;;16.87;57.67;99971.06;337145;29;854;-78
2022/05/21 00:26:10;;;;;;;343.88;154.63;;;;;;;16.87;57.89;99971.06;335826;29;1335;-78
2022/05/21 00:26:21;;;;;;;333.65;150.18;;;;;;;16.89;57.69;99974.44;337389;29;875;-78
2022/05/21 00:26:31;;;;;;;335.63;150.90;;;;;;;16.88;58.12;99968.31;338526;29;1321;-78
2022/05/21 00:26:42;;;;;;;338.42;150.98;;;;;;;16.89;57.87;99977.94;339574;29;1395;-78
2022/05/21 00:26:53;;;;;;;340.20;151.77;;;;;;;16.89;58.18;99977.09;338412;29;842;-78
2022/05/21 00:27:04;;;;;;;340.48;154.23;;;;;;;16.88;58.08;99976.25;339872;29;882;-78
2022/05/21 00:27:15;;;;;;;344.17;155.90;;;;;;;16.86;57.82;99964.91;339838;29;1521;-78
2022/05/21 00:27:27;;;;;;;344.25;155.98;;;;;;;16.88;57.98;99972.75;337183;29;1072;-78
2022/05/21 00:27:37;;;;;;;345.08;154.25;;;;;;;16.86;57.94;99974.63;338709;29;1226;-78
2022/05/21 00:27:48;;;;;;;345.77;155.17;;;;;;;16.86;58.16;99975.50;341135;29;1292;-78
2022/05/21 00:27:58;;;;;;;345.05;155.20;;;;;;;16.86;58.34;99964.91;339568;29;1293;-78
2022/05/21 00:28:09;;;;;;;344.00;158.07;;;;;;;16.88;58.24;99973.59;337222;29;843;-78
2022/05/21 00:28:19;;;;;;;342.10;157.50;;;;;;;16.85;58.21;99971.13;340967;29;1218;-78
2022/05/21 00:28:30;;;;;;;341.70;157.10;;;;;;;16.87;57.86;99976.34;340692;29;1800;-78
2022/05/21 00:28:42;;;;;;;340.58;158.30;;;;;;;16.84;58.03;99972.09;339431;29;1714;-78
2022/05/21 00:28:53;;;;;;;341.08;159.13;;;;;;;16.84;58.12;99969.44;339955;29;1338;-78
2022/05/21 00:29:03;;;;;;;339.00;158.60;;;;;;;16.84;58.03;99977.38;340953;29;1683;-78
2022/05/21 00:29:14;;;;;;;340.57;159.60;;;;;;;16.82;58.39;99973.97;337215;29;1272;-78
2022/05/21 00:29:26;;;;;;;337.98;157.50;;;;;;;16.82;58.19;99968.69;338349;29;1434;-78
2022/05/21 00:29:37;;;;;;;338.35;155.23;;;;;;;16.79;58.42;99968.88;338424;29;1596;-79
2022/05/21 00:29:48;;;;;;;336.77;151.05;;;;;;;16.84;58.20;99972.09;337182;29;1355;-78
2022/05/21 00:29:58;;;;;;;337.80;153.57;;;;;;;16.82;58.13;99968.69;335816;29;1375;-78
2022/05/21 00:30:09;;;;;;;338.20;154.55;;;;;;;16.82;58.14;99967.84;337102;29;1222;-78
2022/05/21 00:30:19;;;;;;;339.25;157.38;;;;;;;16.81;58.58;99966.97;339854;29;1286;-78
2022/05/21 00:30:30;;;;;;;340.77;157.47;;;;;;;16.80;58.16;99967.94;338419;29;1555;-78
2022/05/21 00:30:40;;;;;;;339.83;158.00;;;;;;;16.79;58.23;99973.31;337147;29;864;-79
2022/05/21 00:30:51;;;;;;;339.10;155.40;;;;;;;16.80;58.33;99969.72;339672;29;1257;-79
2022/05/21 00:31:01;;;;;;;335.77;154.27;;;;;;;16.75;58.21;99966.50;338631;29;1259;-79
2022/05/21 00:31:14;;;;;;;335.57;154.53;;;;;;;16.75;58.09;99975.28;339922;29;1209;-79
2022/05/21 00:31:24;;;;;;;338.42;153.52;;;;;;;16.77;58.13;99964.63;338299;29;1449;-78
2022/05/21 00:31:36;;;;;;;340.67;154.53;;;;;;;16.78;58.34;99969.81;338583;29;1698;-78
2022/05/21 00:31:47;;;;;;;344.17;157.20;;;;;;;16.74;58.14;99968.28;337140;29;1429;-78
2022/05/21 00:31:57;;;;;;;344.25;158.00;;;;;;;16.72;57.99;99972.81;338428;29;1064;-78
2022/05/21 00:32:08;;;;;;;342.23;152.30;;;;;;;16.77;58.23;99970.75;337972;29;1377;-78
2022/05/21 00:32:18;;;;;;;341.80;152.93;;;;;;;16.75;58.21;99975.28;339631;29;1354;-78
2022/05/21 00:32:28;;;;;;;341.23;153.90;;;;;;;16.71;57.96;99971.13;338432;29;1263;-78
2022/05/21 00:32:40;;;;;;;341.92;158.65;;;;;;;16.72;57.91;99977.25;337253;29;1402;-78
2022/05/21 00:32:50;;;;;;;339.23;157.13;;;;;;;16.71;58.13;99971.13;337270;29;1009;-78
2022/05/21 00:33:00;;;;;;;338.43;157.40;;;;;;;16.69;58.11;99973.00;337123;29;1297;-78
2022/05/21 00:33:11;;;;;;;339.27;156.60;;;;;;;16.68;58.00;99967.81;337669;29;1450;-78
2022/05/21 00:33:22;;;;;;;341.40;158.00;;;;;;;16.67;58.18;99977.53;337202;29;1565;-78
2022/05/21 00:33:32;;;;;;;338.52;156.18;;;;;;;16.65;58.33;99971.50;338424;29;823;-78
2022/05/21 00:33:43;;;;;;;337.83;156.17;;;;;;;16.64;58.29;99969.78;337047;29;1330;-78
2022/05/21 00:33:54;;;;;;;338.95;156.50;;;;;;;16.66;58.57;99977.63;339818;29;1572;-78
2022/05/21 00:34:04;;;;;;;339.80;157.82;;;;;;;16.67;58.11;99968.75;340272;29;1228;-78
2022/05/21 00:34:15;;;;;;;339.20;159.03;;;;;;;16.68;58.31;99976.59;338359;29;1222;-79
2022/05/21 00:34:25;;;;;;;339.33;159.33;;;;;;;16.66;58.22;99978.47;338406;29;1353;-79
2022/05/21 00:34:36;;;;;;;340.07;157.87;;;;;;;16.66;58.26;99978.47;339742;29;1336;-79
2022/05/21 00:34:46;;;;;;;341.27;158.57;;;;;;;16.65;58.12;99976.78;338542;29;1333;-78
2022/05/21 00:34:56;;;;;;;339.52;155.90;;;;;;;16.66;58.06;99970.53;337523;29;1396;-78
2022/05/21 00:35:08;;;;;;;338.00;156.60;;;;;;;16.68;58.31;99971.31;337548;29;2314;-78
2022/05/21 00:35:18;;;;;;;338.17;155.90;;;;;;;16.68;58.44;99979.22;338914;29;906;-78
2022/05/21 00:35:28;;;;;;;339.80;157.45;;;;;;;16.67;58.58;99974.03;337988;29;1500;-78
2022/05/21 00:35:40;;;;;;;343.10;160.10;;;;;;;16.66;58.60;99983.75;338878;29;1615;-78
2022/05/21 00:35:51;;;;;;;341.27;157.48;;;;;;;16.70;58.54;99974.72;337535;29;1293;-78
2022/05/21 00:36:01;;;;;;;340.10;155.20;;;;;;;16.69;58.60;99973.00;337862;29;1366;-78
2022/05/21 00:36:12;;;;;;;333.95;149.75;;;;;;;16.67;58.58;99969.59;337660;29;1192;-78
2022/05/21 00:36:22;;;;;;;333.10;150.60;;;;;;;16.66;58.64;99967.91;338292;29;1611;-78
2022/05/21 00:36:32;;;;;;;336.90;154.13;;;;;;;16.69;58.73;99978.28;337873;29;1538;-78
2022/05/21 00:36:43;;;;;;;340.53;157.33;;;;;;;16.70;58.75;99968.56;336935;29;1282;-79
2022/05/21 00:36:53;;;;;;;341.88;157.80;;;;;;;16.71;58.69;99971.13;340256;29;1256;-79
2022/05/21 00:37:04;;;;;;;337.47;155.77;;;;;;;16.72;58.80;99971.97;341432;29;1405;-79
2022/05/21 00:37:14;;;;;;;337.92;155.10;;;;;;;16.71;59.11;99973.75;340258;29;1536;-79
2022/05/21 00:37:25;;;;;;;338.42;156.10;;;;;;;16.70;59.14;99968.56;338848;29;1438;-79
2022/05/21 00:37:35;;;;;;;340.43;157.33;;;;;;;16.69;59.24;99980.94;336461;29;1204;-79
2022/05/21 00:37:46;;;;;;;340.40;156.37;;;;;;;16.69;59.58;99973.00;338929;29;1289;-78
2022/05/21 00:37:56;;;;;;;340.75;156.10;;;;;;;16.70;59.41;99973.84;340114;29;1210;-78
2022/05/21 00:38:07;;;;;;;342.03;157.23;;;;;;;16.72;59.40;99972.81;340438;29;1293;-78
2022/05/21 00:38:18;;;;;;;341.75;158.20;;;;;;;16.69;59.46;99973.00;337797;29;1324;-78
2022/05/21 00:38:29;;;;;;;343.70;157.07;;;;;;;16.70;59.88;99976.50;339203;29;1210;-79
2022/05/21 00:38:39;;;;;;;341.38;155.25;;;;;;;16.70;59.80;99973.84;340401;29;1328;-79
2022/05/21 00:38:50;;;;;;;339.90;155.95;;;;;;;16.67;60.07;99974.88;339047;29;799;-79
2022/05/21 00:39:00;;;;;;;339.00;156.63;;;;;;;16.68;60.04;99976.59;339230;29;862;-79
2022/05/21 00:39:11;;;;;;;337.38;154.63;;;;;;;16.65;59.86;99974.13;337660;29;1465;-79
2022/05/21 00:39:21;;;;;;;338.20;154.20;;;;;;;16.65;60.29;99971.50;339267;29;1227;-79
2022/05/21 00:39:31;;;;;;;339.88;153.50;;;;;;;16.65;60.01;99971.50;337821;29;1025;-79
2022/05/21 00:39:42;;;;;;;341.90;155.23;;;;;;;16.69;60.10;99975.66;336466;29;1230;-79
2022/05/21 00:39:52;;;;;;;340.30;154.07;;;;;;;16.67;60.17;99974.03;336601;29;1275;-79
2022/05/21 00:40:03;;;;;;;339.02;155.15;;;;;;;16.63;59.85;99965.41;337714;29;1291;-79
2022/05/21 00:40:14;;;;;;;338.20;156.13;;;;;;;16.63;60.15;99973.34;338825;29;1313;-79
2022/05/21 00:40:24;;;;;;;339.07;157.50;;;;;;;16.64;59.95;99975.06;337535;29;1278;-79
2022/05/21 00:40:35;;;;;;;339.02;156.07;;;;;;;16.66;59.92;99973.19;338715;29;1528;-79
2022/05/21 00:40:46;;;;;;;337.85;152.98;;;;;;;16.64;59.91;99975.06;340481;29;1415;-79
2022/05/21 00:40:56;;;;;;;338.17;152.65;;;;;;;16.64;59.84;99969.78;339045;29;1347;-79
2022/05/21 00:41:08;;;;;;;339.77;155.03;;;;;;;16.63;59.94;99968.06;337122;29;1378;-79
2022/05/21 00:41:19;;;;;;;341.73;156.63;;;;;;;16.59;60.07;99971.81;339280;29;1302;-79
2022/05/21 00:41:30;;;;;;;341.55;156.50;;;;;;;16.61;59.96;99977.88;339285;29;1363;-79
2022/05/21 00:41:41;;;;;;;341.17;156.20;;;;;;;16.57;60.02;99971.06;337630;29;1414;-79
2022/05/21 00:41:52;;;;;;;339.73;155.63;;;;;;;16.54;60.17;99968.59;338388;29;1244;-79
2022/05/21 00:42:06;;;;;;;338.08;154.20;;;;;;;16.57;59.97;99973.69;338846;29;1322;-79
2022/05/21 00:42:17;;;;;;;335.55;153.93;;;;;;;16.57;59.97;99974.56;337629;29;1501;-79
2022/05/21 00:42:27;;;;;;;333.93;153.10;;;;;;;16.58;59.96;99975.41;337943;29;1384;-79
2022/05/21 00:42:45;;;;;;;339.37;156.40;;;;;;;16.58;59.98;99975.41;338878;29;1503;-79
2022/05/21 00:42:55;;;;;;;338.13;153.80;;;;;;;16.59;59.92;99972.66;338897;29;1358;-79
2022/05/21 00:43:06;;;;;;;334.80;151.80;;;;;;;16.59;60.11;99974.47;340744;29;1370;-79
2022/05/21 00:43:44;;;;;;;334.93;153.57;;;;;;;16.52;60.00;99976.63;340313;29;1219;-79
2022/05/21 00:43:56;;;;;;;334.20;151.00;;;;;;;16.48;60.12;99974.25;335320;29;1655;-79
2022/05/21 00:44:07;;;;;;;337.63;152.05;;;;;;;16.50;60.07;99980.28;337115;29;1919;-79
2022/05/21 00:44:17;;;;;;;341.55;154.38;;;;;;;16.50;59.92;99972.38;336096;29;3631;-79
2022/05/21 00:44:28;;;;;;;340.40;155.00;;;;;;;16.50;59.63;99973.22;338710;29;899;-79
2022/05/21 00:44:38;;;;;;;338.83;153.43;;;;;;;16.51;59.71;99976.72;339942;29;1396;-79
2022/05/21 00:44:49;;;;;;;337.90;152.03;;;;;;;16.53;59.87;99974.81;337064;29;1219;-79
2022/05/21 00:44:59;;;;;;;338.83;151.55;;;;;;;16.54;59.77;99976.53;339891;29;849;-79
2022/05/21 00:45:10;;;;;;;340.57;154.23;;;;;;;16.52;59.59;99975.75;339779;29;1364;-79
2022/05/21 00:45:21;;;;;;;335.42;151.00;;;;;;;16.52;59.81;99970.47;335772;29;1187;-78
2022/05/21 00:45:32;;;;;;;334.70;152.15;;;;;;;16.51;59.94;99980.19;340717;29;1519;-79
2022/05/21 00:45:43;;;;;;;334.35;151.05;;;;;;;16.51;60.18;99974.06;340628;29;922;-79
2022/05/21 00:45:53;;;;;;;333.50;150.85;;;;;;;16.52;60.30;99970.47;336443;29;1474;-79
2022/05/21 00:46:09;;;;;;;333.37;150.03;;;;;;;16.54;60.09;99976.53;338632;29;1391;-79
2022/05/21 00:46:23;;;;;;;335.23;151.60;;;;;;;16.56;59.88;99980.78;338465;29;1331;-79
2022/05/21 00:46:44;;;;;;;335.83;151.52;;;;;;;16.58;60.22;99975.41;339643;29;1384;-79
2022/05/21 00:46:54;;;;;;;336.20;153.05;;;;;;;16.58;60.22;99965.69;337245;29;882;-79
2022/05/21 00:47:04;;;;;;;336.80;153.50;;;;;;;16.57;60.49;99968.41;337398;29;1271;-78
2022/05/21 00:47:15;;;;;;;336.83;153.13;;;;;;;16.56;60.53;99972.00;337594;29;1318;-79
2022/05/21 00:47:26;;;;;;;337.10;152.97;;;;;;;16.57;60.75;99973.69;341664;28;1367;-79
2022/05/21 00:47:36;;;;;;;337.13;152.07;;;;;;;16.57;60.74;99974.56;338856;29;1589;-79
2022/05/21 00:47:47;;;;;;;338.50;154.23;;;;;;;16.56;60.77;99972.84;337694;29;1429;-79
2022/05/21 00:47:58;;;;;;;335.50;151.57;;;;;;;16.55;60.64;99965.88;341304;29;1120;-79
2022/05/21 00:48:08;;;;;;;333.77;147.82;;;;;;;16.55;60.75;99965.88;340053;29;1393;-79
2022/05/21 00:48:18;;;;;;;333.75;146.55;;;;;;;16.58;61.06;99975.41;340293;29;1007;-79
2022/05/21 00:48:29;;;;;;;334.47;148.20;;;;;;;16.55;60.86;99967.66;339114;29;814;-79
2022/05/21 00:48:40;;;;;;;336.87;152.13;;;;;;;16.52;60.73;99967.84;340357;29;1536;-79
2022/05/21 00:49:13;;;;;;;336.67;154.05;;;;;;;16.52;61.05;99970.47;340412;29;1380;-79
2022/05/21 00:49:27;;;;;;;329.95;148.13;;;;;;;16.50;60.93;99972.38;341893;29;1289;-79
2022/05/21 00:49:39;;;;;;;334.48;152.80;;;;;;;16.50;60.93;99972.38;340607;29;1405;-79
2022/05/21 00:49:49;;;;;;;334.33;154.63;;;;;;;16.50;61.34;99973.22;343089;28;806;-79
2022/05/21 00:50:00;;;;;;;334.87;154.30;;;;;;;16.49;61.06;99971.50;340464;29;767;-79
2022/05/21 00:50:12;;;;;;;336.58;154.77;;;;;;;16.50;60.86;99972.38;339106;29;1301;-79
2022/05/21 00:50:24;;;;;;;337.98;154.88;;;;;;;16.52;60.93;99981.06;338115;29;1104;-79
2022/05/21 00:50:34;;;;;;;337.83;154.48;;;;;;;16.53;61.12;99972.19;339077;29;1640;-79
2022/05/21 00:50:45;;;;;;;337.63;152.82;;;;;;;16.54;61.28;99973.88;336685;29;1358;-78
2022/05/21 00:50:55;;;;;;;336.43;152.50;;;;;;;16.54;61.10;99968.59;339375;29;1351;-78
2022/05/21 00:51:08;;;;;;;335.77;151.07;;;;;;;16.53;61.35;99974.81;338999;29;810;-78
2022/05/21 00:51:21;;;;;;;338.10;150.70;;;;;;;16.57;61.13;99976.34;336531;29;1389;-78
2022/05/21 00:52:12;;;;;;;335.95;150.27;;;;;;;16.58;60.92;99972.75;340422;29;838;-78
2022/05/21 00:52:24;;;;;;;330.48;151.90;;;;;;;16.56;60.93;99974.66;337586;29;1419;-78
2022/05/21 00:52:35;;;;;;;330.50;151.25;;;;;;;16.58;61.08;99975.41;338987;29;879;-78
2022/05/21 00:52:46;;;;;;;333.30;154.00;;;;;;;16.58;60.98;99978.03;340319;29;974;-78